Time;durP1;ratioP1;P1;durP2;ratioP2;P2;SDS_P1;SDS_P2;PMS_P1;PMS_P2;Temp;Humidity;BMP_temperature;BMP_pressure;BME280_temperature;BME280_humidity;BME280_pressure;Samples;Min_cycle;Max_cycle;Signal;HPM_P1;HPM_P2
2022/11/01 00:07:25;;;;;;;20;29.2;;;;;;;8.3;89.2;99030;;;;
2022/11/01 00:17:25;;;;;;;20;29.2;;;;;;;8.3;89.2;99040;;;;
2022/11/01 00:27:26;;;;;;;20;29.2;;;;;;;8.2;88.9;99030;;;;
2022/11/01 00:38:25;;;;;;;18.7;24.4;;;;;;;8;89.1;99020;;;;
2022/11/01 00:48:25;;;;;;;18.7;24.4;;;;;;;8;89.2;99030;;;;
2022/11/01 00:59:25;;;;;;;18.7;24.4;;;;;;;7.8;89.5;99010;;;;
2022/11/01 01:09:25;;;;;;;18.3;30.3;;;;;;;7.9;89.9;99010;;;;
2022/11/01 01:20:25;;;;;;;18.3;30.3;;;;;;;7.9;89.9;99010;;;;
2022/11/01 01:30:25;;;;;;;18.3;30.3;;;;;;;8.2;90.5;98990;;;;
2022/11/01 01:40:25;;;;;;;21.1;27.5;;;;;;;8.4;90.8;98980;;;;
2022/11/01 01:50:26;;;;;;;21.1;27.5;;;;;;;8.5;90.8;98970;;;;
2022/11/01 02:01:26;;;;;;;21.1;27.5;;;;;;;8.8;90.7;98980;;;;
2022/11/01 02:11:25;;;;;;;23;27.4;;;;;;;8.9;90.5;98970;;;;
2022/11/01 02:21:26;;;;;;;23;27.4;;;;;;;9;90.2;98970;;;;
2022/11/01 02:32:25;;;;;;;27.6;36;;;;;;;9;89.7;98960;;;;
2022/11/01 02:43:25;;;;;;;27.6;36;;;;;;;8.9;89.2;98970;;;;
2022/11/01 02:54:25;;;;;;;27.6;36;;;;;;;8.7;87.8;98970;;;;
2022/11/01 03:05:25;;;;;;;32;44.8;;;;;;;8.5;88.4;98970;;;;
2022/11/01 03:15:25;;;;;;;32;44.8;;;;;;;8.6;88.2;98970;;;;
2022/11/01 03:25:43;;;;;;;32;44.8;;;;;;;8.4;88.3;98950;;;;
2022/11/01 03:36:25;;;;;;;29.6;40;;;;;;;8.5;88.5;98960;;;;
2022/11/01 03:47:25;;;;;;;29.6;40;;;;;;;8.6;88.9;98970;;;;
2022/11/01 03:58:40;;;;;;;29.6;40;;;;;;;8.6;89.5;98960;;;;
2022/11/01 04:08:26;;;;;;;27.9;34.6;;;;;;;8.7;89.8;98970;;;;
2022/11/01 04:29:26;;;;;;;27.9;34.6;;;;;;;8.8;90.2;98950;;;;
2022/11/01 04:40:25;;;;;;;33.5;40.9;;;;;;;8.8;90.6;98950;;;;
2022/11/01 04:51:26;;;;;;;33.5;40.9;;;;;;;8.6;91.2;98940;;;;
2022/11/01 05:01:26;;;;;;;33.5;40.9;;;;;;;8.7;91.5;98940;;;;
2022/11/01 05:11:26;;;;;;;34.9;42.7;;;;;;;8.7;91.1;98930;;;;
2022/11/01 05:22:26;;;;;;;34.9;42.7;;;;;;;8.4;91;98940;;;;
2022/11/01 05:33:25;;;;;;;22.2;25.3;;;;;;;8.4;91;98940;;;;
2022/11/01 05:43:25;;;;;;;22.2;25.3;;;;;;;8.5;91;98930;;;;
2022/11/01 05:53:26;;;;;;;22.2;25.3;;;;;;;8.7;91;98930;;;;
2022/11/01 06:03:26;;;;;;;18.2;20.4;;;;;;;8.8;91;98930;;;;
2022/11/01 06:14:26;;;;;;;18.2;20.4;;;;;;;8.9;90.8;98950;;;;
2022/11/01 06:24:26;;;;;;;18.2;20.4;;;;;;;9.1;91;98950;;;;
2022/11/01 06:35:26;;;;;;;14.7;17.2;;;;;;;9.1;90.9;98950;;;;
2022/11/01 06:46:26;;;;;;;14.7;17.2;;;;;;;9.3;91.1;98960;;;;
2022/11/01 06:56:26;;;;;;;14.7;17.2;;;;;;;9.6;91;98970;;;;
2022/11/01 07:06:29;;;;;;;12.3;17.9;;;;;;;9.9;90.8;98970;;;;
2022/11/01 07:17:26;;;;;;;12.3;17.9;;;;;;;10.1;90.8;98950;;;;
2022/11/01 07:28:26;;;;;;;12.3;17.9;;;;;;;10.5;90.7;98940;;;;
2022/11/01 07:38:26;;;;;;;15.5;19.8;;;;;;;10.8;90.2;98960;;;;
2022/11/01 07:49:26;;;;;;;15.5;19.8;;;;;;;11;89.9;98940;;;;
2022/11/01 07:59:26;;;;;;;15.5;19.8;;;;;;;11.2;89.3;98940;;;;
2022/11/01 08:09:26;;;;;;;22;28.1;;;;;;;11.3;88.7;98940;;;;
2022/11/01 08:20:26;;;;;;;22;28.1;;;;;;;11.3;88.5;98950;;;;
2022/11/01 08:30:26;;;;;;;22;28.1;;;;;;;11.4;88.4;98950;;;;
2022/11/01 08:40:27;;;;;;;33;42;;;;;;;11.3;88.9;98940;;;;
2022/11/01 08:51:26;;;;;;;33;42;;;;;;;11.4;88.7;98930;;;;
2022/11/01 09:01:26;;;;;;;27.2;35.2;;;;;;;11.7;88.5;98940;;;;
2022/11/01 09:11:26;;;;;;;27.2;35.2;;;;;;;11.9;87.8;98950;;;;
2022/11/01 09:22:27;;;;;;;27.2;35.2;;;;;;;12.1;87.7;98960;;;;
2022/11/01 09:33:26;;;;;;;23.2;27.4;;;;;;;12.3;87;98950;;;;
2022/11/01 09:44:26;;;;;;;23.2;27.4;;;;;;;12.6;86.9;98960;;;;
2022/11/01 09:54:26;;;;;;;23.2;27.4;;;;;;;12.9;85.4;98930;;;;
2022/11/01 10:05:26;;;;;;;23.2;30.1;;;;;;;13.2;84.6;98950;;;;
2022/11/01 10:16:26;;;;;;;23.2;30.1;;;;;;;13.6;83.1;98960;;;;
2022/11/01 10:27:28;;;;;;;23.2;30.1;;;;;;;13.9;82.1;98950;;;;
2022/11/01 10:37:26;;;;;;;20;25.1;;;;;;;14.3;80.7;98950;;;;
2022/11/01 10:48:26;;;;;;;20;25.1;;;;;;;14.2;79.5;98950;;;;
2022/11/01 10:59:26;;;;;;;20;25.1;;;;;;;14.4;79.9;98940;;;;
2022/11/01 11:10:26;;;;;;;20.8;24.1;;;;;;;14.8;79.4;98920;;;;
2022/11/01 11:20:26;;;;;;;20.8;24.1;;;;;;;15;78.8;98920;;;;
2022/11/01 11:30:26;;;;;;;20.8;24.1;;;;;;;14.8;80.1;98910;;;;
2022/11/01 11:40:26;;;;;;;21.2;27.6;;;;;;;14.6;80.3;98910;;;;
2022/11/01 11:50:26;;;;;;;21.2;27.6;;;;;;;14.8;79.2;98910;;;;
2022/11/01 12:01:26;;;;;;;20.7;28.3;;;;;;;15;80;98900;;;;
2022/11/01 12:11:26;;;;;;;20.7;28.3;;;;;;;15.3;79.8;98900;;;;
2022/11/01 12:20:26;;;;;;;20.7;28.3;;;;;;;15.2;79.4;98890;;;;
2022/11/01 12:30:25;;;;;;;20.7;28.3;;;;;;;15.5;78.6;98890;;;;
2022/11/01 12:40:25;;;;;;;18.9;22.9;;;;;;;15.7;78.6;98890;;;;
2022/11/01 12:50:25;;;;;;;18.9;22.9;;;;;;;15.8;77.5;98900;;;;
2022/11/01 13:01:25;;;;;;;17.7;21.5;;;;;;;16.1;75.8;98890;;;;
2022/11/01 13:11:25;;;;;;;17.7;21.5;;;;;;;16.2;76.2;98890;;;;
2022/11/01 13:22:25;;;;;;;17.7;21.5;;;;;;;16.3;75.6;98890;;;;
2022/11/01 13:33:25;;;;;;;15.7;21.2;;;;;;;16.6;75.5;98900;;;;
2022/11/01 13:43:25;;;;;;;15.7;21.2;;;;;;;16.6;73.7;98910;;;;
2022/11/01 13:53:25;;;;;;;15.7;21.2;;;;;;;16.4;72.6;98910;;;;
2022/11/01 14:03:25;;;;;;;8.1;10.9;;;;;;;16.4;72.4;98910;;;;
2022/11/01 14:14:25;;;;;;;8.1;10.9;;;;;;;16.1;73.1;98920;;;;
2022/11/01 14:24:25;;;;;;;8.1;10.9;;;;;;;15.5;73.8;98940;;;;
2022/11/01 14:35:25;;;;;;;7.6;13.1;;;;;;;15.1;75.1;98940;;;;
2022/11/01 14:45:25;;;;;;;7.6;13.1;;;;;;;14.8;76.2;98960;;;;
2022/11/01 14:56:26;;;;;;;7.6;13.1;;;;;;;14.5;77.1;98960;;;;
2022/11/01 15:07:25;;;;;;;9.4;18.3;;;;;;;14.1;78;98980;;;;
2022/11/01 15:18:25;;;;;;;9.4;18.3;;;;;;;13.7;79.2;98980;;;;
2022/11/01 15:28:25;;;;;;;9.4;18.3;;;;;;;13.4;80.1;98990;;;;
2022/11/01 15:39:25;;;;;;;8.7;13.6;;;;;;;13.1;80.7;98990;;;;
2022/11/01 15:49:25;;;;;;;8.7;13.6;;;;;;;12.9;81.3;99000;;;;
2022/11/01 15:59:25;;;;;;;8.7;13.6;;;;;;;12.6;81.7;99000;;;;
2022/11/01 16:09:25;;;;;;;14.6;20.9;;;;;;;12.4;82.3;98990;;;;
2022/11/01 16:19:25;;;;;;;14.6;20.9;;;;;;;12.3;82.6;99010;;;;
2022/11/01 16:30:27;;;;;;;14.6;20.9;;;;;;;12.1;82.7;99020;;;;
2022/11/01 16:40:25;;;;;;;12;15.8;;;;;;;11.8;83;99030;;;;
2022/11/01 16:50:25;;;;;;;12;15.8;;;;;;;11.6;83.3;99040;;;;
2022/11/01 17:01:25;;;;;;;9;13;;;;;;;11.3;83.7;99060;;;;
2022/11/01 17:12:25;;;;;;;9;13;;;;;;;11.1;85.6;99070;;;;
2022/11/01 17:22:25;;;;;;;9;13;;;;;;;11.1;86;99070;;;;
2022/11/01 17:32:25;;;;;;;15.3;21;;;;;;;11;86;99080;;;;
2022/11/01 17:43:25;;;;;;;15.3;21;;;;;;;10.7;85.6;99090;;;;
2022/11/01 17:54:25;;;;;;;15.3;21;;;;;;;10.4;85.6;99100;;;;
2022/11/01 18:05:25;;;;;;;15.9;20.5;;;;;;;10.2;85.5;99100;;;;
2022/11/01 18:16:25;;;;;;;15.9;20.5;;;;;;;10;86.6;99110;;;;
2022/11/01 18:27:25;;;;;;;15.9;20.5;;;;;;;10;87.5;99110;;;;
2022/11/01 18:38:25;;;;;;;14.7;20.4;;;;;;;10;88.3;99120;;;;
2022/11/01 18:49:25;;;;;;;14.7;20.4;;;;;;;10.1;88.6;99120;;;;
2022/11/01 18:59:26;;;;;;;14.7;20.4;;;;;;;10;88.4;99130;;;;
2022/11/01 19:10:27;;;;;;;15.4;19.8;;;;;;;10;88.4;99140;;;;
2022/11/01 19:20:26;;;;;;;15.4;19.8;;;;;;;9.9;88.6;99140;;;;
2022/11/01 19:30:25;;;;;;;15.4;19.8;;;;;;;10;89;99150;;;;
2022/11/01 19:41:27;;;;;;;14.7;19.7;;;;;;;10.1;89.3;99150;;;;
2022/11/01 19:52:26;;;;;;;14.7;19.7;;;;;;;10.3;89.3;99160;;;;
2022/11/01 20:02:25;;;;;;;17.2;23.7;;;;;;;10.3;89.2;99170;;;;
2022/11/01 20:13:25;;;;;;;17.2;23.7;;;;;;;10.4;88.8;99170;;;;
2022/11/01 20:24:26;;;;;;;17.2;23.7;;;;;;;10.5;88.4;99180;;;;
2022/11/01 20:34:27;;;;;;;18.4;24;;;;;;;10.5;88.2;99190;;;;
2022/11/01 20:45:25;;;;;;;18.4;24;;;;;;;10.4;88;99200;;;;
2022/11/01 20:55:26;;;;;;;18.4;24;;;;;;;10.3;87.9;99200;;;;
2022/11/01 21:06:25;;;;;;;19;26.1;;;;;;;10.3;87.7;99200;;;;
2022/11/01 21:17:25;;;;;;;19;26.1;;;;;;;10.2;88;99200;;;;
2022/11/01 21:27:25;;;;;;;19;26.1;;;;;;;10.2;87.6;99200;;;;
2022/11/01 21:37:25;;;;;;;17.5;25.3;;;;;;;10.1;87.5;99210;;;;
2022/11/01 21:47:25;;;;;;;17.5;25.3;;;;;;;10.2;87.8;99220;;;;
2022/11/01 21:57:25;;;;;;;17.5;25.3;;;;;;;10.2;87.9;99220;;;;
2022/11/01 22:08:25;;;;;;;17.7;22.9;;;;;;;10.3;88.1;99220;;;;
2022/11/01 22:19:25;;;;;;;17.7;22.9;;;;;;;10.4;88.4;99230;;;;
2022/11/01 22:29:25;;;;;;;17.7;22.9;;;;;;;10.6;88.5;99220;;;;
2022/11/01 22:39:25;;;;;;;20.8;30.7;;;;;;;10.8;88;99220;;;;
2022/11/01 22:50:25;;;;;;;20.8;30.7;;;;;;;10.9;87.6;99220;;;;
2022/11/01 23:01:26;;;;;;;22.6;28;;;;;;;11;87.3;99220;;;;
2022/11/01 23:23:25;;;;;;;22.6;28;;;;;;;11.4;86.6;99210;;;;
2022/11/01 23:33:25;;;;;;;16.2;22.7;;;;;;;11.6;86.3;99210;;;;
2022/11/01 23:44:25;;;;;;;16.2;22.7;;;;;;;11.6;85.6;99210;;;;
2022/11/01 23:54:25;;;;;;;16.2;22.7;;;;;;;11.7;85.5;99210;;;;
